sensor_id;sensor_type;location;lat;lon;timestamp;P1;durP1;ratioP1;P2;durP2;ratioP2
54853;SDS011;40747;49.480;8.658;2023-04-03T00:01:13;0.80;;;0.70;;
54853;SDS011;40747;49.480;8.658;2023-04-03T00:03:39;1.60;;;0.85;;
54853;SDS011;40747;49.480;8.658;2023-04-03T00:06:06;2.45;;;1.45;;
54853;SDS011;40747;49.480;8.658;2023-04-03T00:08:33;0.85;;;0.68;;
54853;SDS011;40747;49.480;8.658;2023-04-03T00:10:59;1.40;;;1.30;;
54853;SDS011;40747;49.480;8.658;2023-04-03T00:13:24;5.30;;;0.90;;
54853;SDS011;40747;49.480;8.658;2023-04-03T00:15:50;1.25;;;1.15;;
54853;SDS011;40747;49.480;8.658;2023-04-03T00:18:16;1.67;;;1.02;;
54853;SDS011;40747;49.480;8.658;2023-04-03T00:20:42;1.27;;;1.20;;
54853;SDS011;40747;49.480;8.658;2023-04-03T00:23:07;1.30;;;0.93;;
54853;SDS011;40747;49.480;8.658;2023-04-03T00:25:33;1.42;;;1.08;;
54853;SDS011;40747;49.480;8.658;2023-04-03T00:27:58;0.60;;;0.57;;
54853;SDS011;40747;49.480;8.658;2023-04-03T00:30:25;0.50;;;0.50;;
54853;SDS011;40747;49.480;8.658;2023-04-03T00:32:51;1.50;;;1.40;;
54853;SDS011;40747;49.480;8.658;2023-04-03T00:35:17;1.75;;;1.33;;
54853;SDS011;40747;49.480;8.658;2023-04-03T00:37:43;4.18;;;1.17;;
54853;SDS011;40747;49.480;8.658;2023-04-03T00:40:10;1.60;;;1.00;;
54853;SDS011;40747;49.480;8.658;2023-04-03T00:42:37;1.88;;;1.50;;
54853;SDS011;40747;49.480;8.658;2023-04-03T00:47:28;0.90;;;0.80;;
54853;SDS011;40747;49.480;8.658;2023-04-03T00:49:55;0.73;;;0.70;;
54853;SDS011;40747;49.480;8.658;2023-04-03T00:52:22;0.50;;;0.50;;
54853;SDS011;40747;49.480;8.658;2023-04-03T00:54:51;0.68;;;0.68;;
54853;SDS011;40747;49.480;8.658;2023-04-03T00:57:19;0.70;;;0.63;;
54853;SDS011;40747;49.480;8.658;2023-04-03T00:59:46;0.68;;;0.68;;
54853;SDS011;40747;49.480;8.658;2023-04-03T01:02:15;2.78;;;0.70;;
54853;SDS011;40747;49.480;8.658;2023-04-03T01:04:42;1.73;;;0.77;;
54853;SDS011;40747;49.480;8.658;2023-04-03T01:07:10;2.38;;;0.98;;
54853;SDS011;40747;49.480;8.658;2023-04-03T01:09:39;0.73;;;0.70;;
54853;SDS011;40747;49.480;8.658;2023-04-03T01:14:42;1.02;;;0.85;;
54853;SDS011;40747;49.480;8.658;2023-04-03T01:25:22;0.73;;;0.57;;
54853;SDS011;40747;49.480;8.658;2023-04-03T01:27:47;3.35;;;0.98;;
54853;SDS011;40747;49.480;8.658;2023-04-03T01:30:13;0.77;;;0.73;;
54853;SDS011;40747;49.480;8.658;2023-04-03T01:32:41;1.85;;;1.60;;
54853;SDS011;40747;49.480;8.658;2023-04-03T01:35:08;1.35;;;1.05;;
54853;SDS011;40747;49.480;8.658;2023-04-03T01:37:34;0.73;;;0.68;;
54853;SDS011;40747;49.480;8.658;2023-04-03T01:40:00;1.85;;;0.68;;
54853;SDS011;40747;49.480;8.658;2023-04-03T01:42:25;1.00;;;0.80;;
54853;SDS011;40747;49.480;8.658;2023-04-03T01:44:50;0.77;;;0.77;;
54853;SDS011;40747;49.480;8.658;2023-04-03T01:47:15;1.58;;;0.98;;
54853;SDS011;40747;49.480;8.658;2023-04-03T01:49:41;0.75;;;0.70;;
54853;SDS011;40747;49.480;8.658;2023-04-03T01:52:06;1.02;;;0.80;;
54853;SDS011;40747;49.480;8.658;2023-04-03T01:54:31;2.60;;;1.15;;
54853;SDS011;40747;49.480;8.658;2023-04-03T01:56:57;0.80;;;0.77;;
54853;SDS011;40747;49.480;8.658;2023-04-03T01:59:22;1.88;;;1.42;;
54853;SDS011;40747;49.480;8.658;2023-04-03T02:01:47;0.80;;;0.80;;
54853;SDS011;40747;49.480;8.658;2023-04-03T02:04:13;0.43;;;0.43;;
54853;SDS011;40747;49.480;8.658;2023-04-03T02:06:38;1.67;;;1.58;;
54853;SDS011;40747;49.480;8.658;2023-04-03T02:09:04;2.65;;;1.67;;
54853;SDS011;40747;49.480;8.658;2023-04-03T02:11:30;6.30;;;1.00;;
54853;SDS011;40747;49.480;8.658;2023-04-03T02:13:55;0.50;;;0.50;;
54853;SDS011;40747;49.480;8.658;2023-04-03T02:16:20;0.50;;;0.50;;
54853;SDS011;40747;49.480;8.658;2023-04-03T02:18:46;3.50;;;0.93;;
54853;SDS011;40747;49.480;8.658;2023-04-03T02:21:11;2.08;;;1.38;;
54853;SDS011;40747;49.480;8.658;2023-04-03T02:23:36;1.38;;;1.20;;
54853;SDS011;40747;49.480;8.658;2023-04-03T02:26:06;1.45;;;0.70;;
54853;SDS011;40747;49.480;8.658;2023-04-03T02:28:33;1.45;;;1.35;;
54853;SDS011;40747;49.480;8.658;2023-04-03T02:30:59;0.75;;;0.73;;
54853;SDS011;40747;49.480;8.658;2023-04-03T02:33:25;2.97;;;1.25;;
54853;SDS011;40747;49.480;8.658;2023-04-03T02:35:54;10.10;;;1.25;;
54853;SDS011;40747;49.480;8.658;2023-04-03T02:38:20;0.88;;;0.88;;
54853;SDS011;40747;49.480;8.658;2023-04-03T02:40:45;1.55;;;0.90;;
54853;SDS011;40747;49.480;8.658;2023-04-03T02:43:10;0.50;;;0.50;;
54853;SDS011;40747;49.480;8.658;2023-04-03T02:45:36;1.00;;;0.88;;
54853;SDS011;40747;49.480;8.658;2023-04-03T02:48:01;1.17;;;0.68;;
54853;SDS011;40747;49.480;8.658;2023-04-03T02:50:26;1.83;;;0.47;;
54853;SDS011;40747;49.480;8.658;2023-04-03T02:52:52;1.08;;;0.47;;
54853;SDS011;40747;49.480;8.658;2023-04-03T02:55:17;0.68;;;0.68;;
54853;SDS011;40747;49.480;8.658;2023-04-03T02:57:42;1.65;;;0.98;;
54853;SDS011;40747;49.480;8.658;2023-04-03T03:00:08;0.75;;;0.70;;
54853;SDS011;40747;49.480;8.658;2023-04-03T03:02:34;1.17;;;1.08;;
54853;SDS011;40747;49.480;8.658;2023-04-03T03:05:00;0.98;;;0.98;;
54853;SDS011;40747;49.480;8.658;2023-04-03T03:07:25;0.50;;;0.50;;
54853;SDS011;40747;49.480;8.658;2023-04-03T03:09:50;0.65;;;0.63;;
54853;SDS011;40747;49.480;8.658;2023-04-03T03:12:16;1.00;;;0.38;;
54853;SDS011;40747;49.480;8.658;2023-04-03T03:14:46;0.43;;;0.43;;
54853;SDS011;40747;49.480;8.658;2023-04-03T03:17:11;2.22;;;0.45;;
54853;SDS011;40747;49.480;8.658;2023-04-03T03:19:36;1.50;;;1.17;;
54853;SDS011;40747;49.480;8.658;2023-04-03T03:22:02;0.40;;;0.40;;
54853;SDS011;40747;49.480;8.658;2023-04-03T03:24:27;1.98;;;1.13;;
54853;SDS011;40747;49.480;8.658;2023-04-03T03:26:52;0.80;;;0.80;;
54853;SDS011;40747;49.480;8.658;2023-04-03T03:29:17;0.68;;;0.63;;
54853;SDS011;40747;49.480;8.658;2023-04-03T03:31:43;1.35;;;1.25;;
54853;SDS011;40747;49.480;8.658;2023-04-03T03:34:08;1.05;;;0.90;;
54853;SDS011;40747;49.480;8.658;2023-04-03T03:36:33;0.60;;;0.60;;
54853;SDS011;40747;49.480;8.658;2023-04-03T03:38:59;1.58;;;1.02;;
54853;SDS011;40747;49.480;8.658;2023-04-03T03:41:24;1.35;;;1.25;;
54853;SDS011;40747;49.480;8.658;2023-04-03T03:43:50;3.95;;;1.08;;
54853;SDS011;40747;49.480;8.658;2023-04-03T03:46:15;2.40;;;0.90;;
54853;SDS011;40747;49.480;8.658;2023-04-03T03:48:41;2.05;;;1.15;;
54853;SDS011;40747;49.480;8.658;2023-04-03T03:51:06;1.15;;;0.95;;
54853;SDS011;40747;49.480;8.658;2023-04-03T03:53:32;0.88;;;0.80;;
54853;SDS011;40747;49.480;8.658;2023-04-03T03:55:57;0.50;;;0.50;;
54853;SDS011;40747;49.480;8.658;2023-04-03T03:58:22;0.75;;;0.75;;
54853;SDS011;40747;49.480;8.658;2023-04-03T04:00:48;0.63;;;0.45;;
54853;SDS011;40747;49.480;8.658;2023-04-03T04:03:13;0.40;;;0.40;;
54853;SDS011;40747;49.480;8.658;2023-04-03T04:05:38;0.70;;;0.70;;
54853;SDS011;40747;49.480;8.658;2023-04-03T04:08:03;1.30;;;1.20;;
54853;SDS011;40747;49.480;8.658;2023-04-03T04:10:29;3.85;;;0.95;;
54853;SDS011;40747;49.480;8.658;2023-04-03T04:12:54;1.10;;;0.98;;
54853;SDS011;40747;49.480;8.658;2023-04-03T04:15:19;1.58;;;1.35;;
54853;SDS011;40747;49.480;8.658;2023-04-03T04:17:46;1.55;;;1.45;;
54853;SDS011;40747;49.480;8.658;2023-04-03T04:20:11;1.23;;;1.13;;
54853;SDS011;40747;49.480;8.658;2023-04-03T04:22:37;1.92;;;1.35;;
54853;SDS011;40747;49.480;8.658;2023-04-03T04:25:03;0.20;;;0.20;;
54853;SDS011;40747;49.480;8.658;2023-04-03T04:27:29;4.88;;;0.93;;
54853;SDS011;40747;49.480;8.658;2023-04-03T04:29:54;0.57;;;0.57;;
54853;SDS011;40747;49.480;8.658;2023-04-03T04:32:20;0.60;;;0.60;;
54853;SDS011;40747;49.480;8.658;2023-04-03T04:34:45;1.50;;;0.73;;
54853;SDS011;40747;49.480;8.658;2023-04-03T04:37:10;10.85;;;1.55;;
54853;SDS011;40747;49.480;8.658;2023-04-03T04:39:36;0.60;;;0.60;;
54853;SDS011;40747;49.480;8.658;2023-04-03T04:42:01;1.20;;;1.10;;
54853;SDS011;40747;49.480;8.658;2023-04-03T04:44:26;1.00;;;1.00;;
54853;SDS011;40747;49.480;8.658;2023-04-03T04:46:52;0.47;;;0.47;;
54853;SDS011;40747;49.480;8.658;2023-04-03T04:49:17;0.40;;;0.40;;
54853;SDS011;40747;49.480;8.658;2023-04-03T04:51:42;1.23;;;1.13;;
54853;SDS011;40747;49.480;8.658;2023-04-03T04:54:08;1.60;;;0.98;;
54853;SDS011;40747;49.480;8.658;2023-04-03T04:56:33;1.25;;;0.73;;
54853;SDS011;40747;49.480;8.658;2023-04-03T04:58:58;1.38;;;0.77;;
54853;SDS011;40747;49.480;8.658;2023-04-03T05:01:23;4.88;;;0.95;;
54853;SDS011;40747;49.480;8.658;2023-04-03T05:03:49;1.00;;;0.43;;
54853;SDS011;40747;49.480;8.658;2023-04-03T05:06:14;1.42;;;1.30;;
54853;SDS011;40747;49.480;8.658;2023-04-03T05:08:40;0.60;;;0.52;;
54853;SDS011;40747;49.480;8.658;2023-04-03T05:11:05;0.52;;;0.52;;
54853;SDS011;40747;49.480;8.658;2023-04-03T05:13:30;0.80;;;0.70;;
54853;SDS011;40747;49.480;8.658;2023-04-03T05:15:56;1.33;;;0.85;;
54853;SDS011;40747;49.480;8.658;2023-04-03T05:18:21;0.80;;;0.73;;
54853;SDS011;40747;49.480;8.658;2023-04-03T05:20:48;1.50;;;1.13;;
54853;SDS011;40747;49.480;8.658;2023-04-03T05:23:14;0.52;;;0.52;;
54853;SDS011;40747;49.480;8.658;2023-04-03T05:25:39;0.75;;;0.75;;
54853;SDS011;40747;49.480;8.658;2023-04-03T05:28:05;0.70;;;0.45;;
54853;SDS011;40747;49.480;8.658;2023-04-03T05:30:31;0.77;;;0.77;;
54853;SDS011;40747;49.480;8.658;2023-04-03T05:32:58;36.45;;;19.45;;
54853;SDS011;40747;49.480;8.658;2023-04-03T05:35:23;10.70;;;6.80;;
54853;SDS011;40747;49.480;8.658;2023-04-03T05:37:49;51.53;;;20.10;;
54853;SDS011;40747;49.480;8.658;2023-04-03T05:40:15;37.75;;;17.95;;
54853;SDS011;40747;49.480;8.658;2023-04-03T05:42:40;20.02;;;12.52;;
54853;SDS011;40747;49.480;8.658;2023-04-03T05:45:05;5.93;;;4.05;;
54853;SDS011;40747;49.480;8.658;2023-04-03T05:47:31;6.75;;;2.63;;
54853;SDS011;40747;49.480;8.658;2023-04-03T05:49:56;3.50;;;1.88;;
54853;SDS011;40747;49.480;8.658;2023-04-03T05:52:26;2.00;;;1.80;;
54853;SDS011;40747;49.480;8.658;2023-04-03T05:54:53;1.48;;;0.88;;
54853;SDS011;40747;49.480;8.658;2023-04-03T05:57:19;2.00;;;1.13;;
54853;SDS011;40747;49.480;8.658;2023-04-03T05:59:45;1.17;;;0.93;;
54853;SDS011;40747;49.480;8.658;2023-04-03T06:02:15;2.20;;;1.63;;
54853;SDS011;40747;49.480;8.658;2023-04-03T06:04:42;3.70;;;1.52;;
54853;SDS011;40747;49.480;8.658;2023-04-03T06:07:12;0.60;;;0.50;;
54853;SDS011;40747;49.480;8.658;2023-04-03T06:09:40;0.90;;;0.88;;
54853;SDS011;40747;49.480;8.658;2023-04-03T06:12:06;2.92;;;1.38;;
54853;SDS011;40747;49.480;8.658;2023-04-03T06:14:31;1.45;;;1.10;;
54853;SDS011;40747;49.480;8.658;2023-04-03T06:16:56;2.20;;;1.13;;
54853;SDS011;40747;49.480;8.658;2023-04-03T06:19:22;2.25;;;1.17;;
54853;SDS011;40747;49.480;8.658;2023-04-03T06:21:48;3.30;;;1.50;;
54853;SDS011;40747;49.480;8.658;2023-04-03T06:24:14;3.97;;;1.45;;
54853;SDS011;40747;49.480;8.658;2023-04-03T06:26:41;2.88;;;1.83;;
54853;SDS011;40747;49.480;8.658;2023-04-03T06:29:07;1.60;;;1.50;;
54853;SDS011;40747;49.480;8.658;2023-04-03T06:31:32;2.20;;;0.95;;
54853;SDS011;40747;49.480;8.658;2023-04-03T06:33:58;1.15;;;0.95;;
54853;SDS011;40747;49.480;8.658;2023-04-03T06:36:23;1.27;;;1.17;;
54853;SDS011;40747;49.480;8.658;2023-04-03T06:38:49;2.10;;;1.40;;
54853;SDS011;40747;49.480;8.658;2023-04-03T06:41:14;1.83;;;1.70;;
54853;SDS011;40747;49.480;8.658;2023-04-03T06:43:41;1.17;;;1.00;;
54853;SDS011;40747;49.480;8.658;2023-04-03T06:46:10;2.72;;;2.38;;
54853;SDS011;40747;49.480;8.658;2023-04-03T06:48:45;15.32;;;2.05;;
54853;SDS011;40747;49.480;8.658;2023-04-03T06:51:29;4.50;;;2.22;;
54853;SDS011;40747;49.480;8.658;2023-04-03T06:53:56;1.80;;;1.42;;
54853;SDS011;40747;49.480;8.658;2023-04-03T06:56:23;2.83;;;1.88;;
54853;SDS011;40747;49.480;8.658;2023-04-03T06:58:50;1.95;;;1.77;;
54853;SDS011;40747;49.480;8.658;2023-04-03T07:01:16;1.95;;;1.42;;
54853;SDS011;40747;49.480;8.658;2023-04-03T07:03:44;1.80;;;1.25;;
54853;SDS011;40747;49.480;8.658;2023-04-03T07:06:11;1.90;;;1.10;;
54853;SDS011;40747;49.480;8.658;2023-04-03T07:08:37;5.65;;;3.00;;
54853;SDS011;40747;49.480;8.658;2023-04-03T07:11:03;3.63;;;2.60;;
54853;SDS011;40747;49.480;8.658;2023-04-03T07:13:28;3.22;;;2.30;;
54853;SDS011;40747;49.480;8.658;2023-04-03T07:15:54;1.33;;;1.05;;
54853;SDS011;40747;49.480;8.658;2023-04-03T07:18:19;1.67;;;1.52;;
54853;SDS011;40747;49.480;8.658;2023-04-03T07:20:46;2.78;;;1.45;;
54853;SDS011;40747;49.480;8.658;2023-04-03T07:23:12;2.17;;;1.45;;
54853;SDS011;40747;49.480;8.658;2023-04-03T07:25:42;2.10;;;1.02;;
54853;SDS011;40747;49.480;8.658;2023-04-03T07:28:11;1.08;;;0.90;;
54853;SDS011;40747;49.480;8.658;2023-04-03T07:30:46;1.42;;;1.20;;
54853;SDS011;40747;49.480;8.658;2023-04-03T07:33:17;2.42;;;1.45;;
54853;SDS011;40747;49.480;8.658;2023-04-03T07:35:44;2.00;;;1.60;;
54853;SDS011;40747;49.480;8.658;2023-04-03T07:38:10;2.40;;;1.10;;
54853;SDS011;40747;49.480;8.658;2023-04-03T07:40:36;3.40;;;1.48;;
54853;SDS011;40747;49.480;8.658;2023-04-03T07:43:03;2.47;;;1.13;;
54853;SDS011;40747;49.480;8.658;2023-04-03T07:45:28;1.15;;;1.05;;
54853;SDS011;40747;49.480;8.658;2023-04-03T07:47:54;1.90;;;1.52;;
54853;SDS011;40747;49.480;8.658;2023-04-03T07:50:20;1.25;;;0.77;;
54853;SDS011;40747;49.480;8.658;2023-04-03T07:52:45;1.35;;;1.10;;
54853;SDS011;40747;49.480;8.658;2023-04-03T07:55:11;3.13;;;1.98;;
54853;SDS011;40747;49.480;8.658;2023-04-03T07:57:36;1.88;;;1.25;;
54853;SDS011;40747;49.480;8.658;2023-04-03T08:00:03;1.90;;;1.10;;
54853;SDS011;40747;49.480;8.658;2023-04-03T08:02:29;4.25;;;1.65;;
54853;SDS011;40747;49.480;8.658;2023-04-03T08:04:56;5.43;;;1.20;;
54853;SDS011;40747;49.480;8.658;2023-04-03T08:07:22;3.20;;;1.30;;
54853;SDS011;40747;49.480;8.658;2023-04-03T08:09:47;2.78;;;0.98;;
54853;SDS011;40747;49.480;8.658;2023-04-03T08:12:13;0.90;;;0.90;;
54853;SDS011;40747;49.480;8.658;2023-04-03T08:14:39;4.45;;;1.40;;
54853;SDS011;40747;49.480;8.658;2023-04-03T08:17:04;7.35;;;1.08;;
54853;SDS011;40747;49.480;8.658;2023-04-03T08:19:30;1.38;;;1.00;;
54853;SDS011;40747;49.480;8.658;2023-04-03T08:21:56;3.15;;;1.05;;
54853;SDS011;40747;49.480;8.658;2023-04-03T08:24:23;2.25;;;0.80;;
54853;SDS011;40747;49.480;8.658;2023-04-03T08:26:49;0.75;;;0.60;;
54853;SDS011;40747;49.480;8.658;2023-04-03T08:29:15;1.73;;;1.00;;
54853;SDS011;40747;49.480;8.658;2023-04-03T08:31:40;3.10;;;1.13;;
54853;SDS011;40747;49.480;8.658;2023-04-03T08:34:05;2.67;;;1.13;;
54853;SDS011;40747;49.480;8.658;2023-04-03T08:36:31;1.60;;;1.17;;
54853;SDS011;40747;49.480;8.658;2023-04-03T08:38:57;1.02;;;0.77;;
54853;SDS011;40747;49.480;8.658;2023-04-03T08:44:03;0.40;;;0.40;;
54853;SDS011;40747;49.480;8.658;2023-04-03T08:49:33;0.73;;;0.60;;
54853;SDS011;40747;49.480;8.658;2023-04-03T08:52:04;1.25;;;0.70;;
54853;SDS011;40747;49.480;8.658;2023-04-03T08:54:35;3.72;;;1.02;;
54853;SDS011;40747;49.480;8.658;2023-04-03T08:57:09;1.35;;;0.65;;
54853;SDS011;40747;49.480;8.658;2023-04-03T08:59:36;1.85;;;0.90;;
54853;SDS011;40747;49.480;8.658;2023-04-03T09:02:11;1.10;;;0.80;;
54853;SDS011;40747;49.480;8.658;2023-04-03T09:04:46;0.50;;;0.50;;
54853;SDS011;40747;49.480;8.658;2023-04-03T09:07:13;0.65;;;0.55;;
54853;SDS011;40747;49.480;8.658;2023-04-03T09:09:47;3.63;;;0.95;;
54853;SDS011;40747;49.480;8.658;2023-04-03T09:12:17;1.13;;;0.82;;
54853;SDS011;40747;49.480;8.658;2023-04-03T09:14:55;0.52;;;0.40;;
54853;SDS011;40747;49.480;8.658;2023-04-03T09:20:07;1.42;;;0.90;;
54853;SDS011;40747;49.480;8.658;2023-04-03T09:22:36;1.23;;;0.52;;
54853;SDS011;40747;49.480;8.658;2023-04-03T09:25:15;0.90;;;0.70;;
54853;SDS011;40747;49.480;8.658;2023-04-03T09:27:43;0.95;;;0.57;;
54853;SDS011;40747;49.480;8.658;2023-04-03T09:30:13;3.15;;;0.90;;
54853;SDS011;40747;49.480;8.658;2023-04-03T09:32:47;1.20;;;0.77;;
54853;SDS011;40747;49.480;8.658;2023-04-03T09:35:31;1.15;;;0.88;;
54853;SDS011;40747;49.480;8.658;2023-04-03T09:38:00;2.80;;;0.80;;
54853;SDS011;40747;49.480;8.658;2023-04-03T09:42:54;5.88;;;0.70;;
54853;SDS011;40747;49.480;8.658;2023-04-03T09:45:22;0.45;;;0.43;;
54853;SDS011;40747;49.480;8.658;2023-04-03T09:48:13;1.67;;;0.45;;
54853;SDS011;40747;49.480;8.658;2023-04-03T09:51:03;4.47;;;0.90;;
54853;SDS011;40747;49.480;8.658;2023-04-03T09:53:34;1.38;;;0.75;;
54853;SDS011;40747;49.480;8.658;2023-04-03T09:56:02;2.65;;;0.77;;
54853;SDS011;40747;49.480;8.658;2023-04-03T09:58:31;0.85;;;0.47;;
54853;SDS011;40747;49.480;8.658;2023-04-03T10:01:02;0.93;;;0.52;;
54853;SDS011;40747;49.480;8.658;2023-04-03T10:03:30;1.02;;;0.57;;
54853;SDS011;40747;49.480;8.658;2023-04-03T10:05:57;1.77;;;1.13;;
54853;SDS011;40747;49.480;8.658;2023-04-03T10:11:09;0.93;;;0.70;;
54853;SDS011;40747;49.480;8.658;2023-04-03T10:13:49;1.88;;;0.60;;
54853;SDS011;40747;49.480;8.658;2023-04-03T10:16:17;1.77;;;0.70;;
54853;SDS011;40747;49.480;8.658;2023-04-03T10:18:49;0.93;;;0.80;;
54853;SDS011;40747;49.480;8.658;2023-04-03T10:21:32;3.95;;;0.75;;
54853;SDS011;40747;49.480;8.658;2023-04-03T10:29:18;0.82;;;0.73;;
54853;SDS011;40747;49.480;8.658;2023-04-03T10:34:40;0.70;;;0.70;;
54853;SDS011;40747;49.480;8.658;2023-04-03T10:37:20;1.85;;;0.40;;
54853;SDS011;40747;49.480;8.658;2023-04-03T10:39:54;0.75;;;0.40;;
54853;SDS011;40747;49.480;8.658;2023-04-03T10:45:26;0.50;;;0.43;;
54853;SDS011;40747;49.480;8.658;2023-04-03T10:48:04;3.20;;;0.77;;
54853;SDS011;40747;49.480;8.658;2023-04-03T10:50:50;0.50;;;0.50;;
54853;SDS011;40747;49.480;8.658;2023-04-03T10:53:39;1.13;;;0.60;;
54853;SDS011;40747;49.480;8.658;2023-04-03T11:01:38;2.20;;;0.60;;
54853;SDS011;40747;49.480;8.658;2023-04-03T11:04:06;1.30;;;0.60;;
54853;SDS011;40747;49.480;8.658;2023-04-03T11:06:37;0.30;;;0.30;;
54853;SDS011;40747;49.480;8.658;2023-04-03T11:09:26;0.90;;;0.70;;
54853;SDS011;40747;49.480;8.658;2023-04-03T11:11:58;0.52;;;0.45;;
54853;SDS011;40747;49.480;8.658;2023-04-03T11:14:30;0.65;;;0.60;;
54853;SDS011;40747;49.480;8.658;2023-04-03T11:22:36;2.15;;;0.65;;
54853;SDS011;40747;49.480;8.658;2023-04-03T11:27:45;0.57;;;0.50;;
54853;SDS011;40747;49.480;8.658;2023-04-03T11:33:52;3.03;;;0.68;;
54853;SDS011;40747;49.480;8.658;2023-04-03T11:36:02;3.15;;;0.93;;
54853;SDS011;40747;49.480;8.658;2023-04-03T11:38:33;0.88;;;0.85;;
54853;SDS011;40747;49.480;8.658;2023-04-03T11:41:01;0.50;;;0.50;;
54853;SDS011;40747;49.480;8.658;2023-04-03T11:43:30;1.85;;;1.05;;
54853;SDS011;40747;49.480;8.658;2023-04-03T11:50:59;0.90;;;0.70;;
54853;SDS011;40747;49.480;8.658;2023-04-03T11:53:33;0.70;;;0.52;;
54853;SDS011;40747;49.480;8.658;2023-04-03T12:04:20;0.95;;;0.70;;
54853;SDS011;40747;49.480;8.658;2023-04-03T12:09:27;3.28;;;0.73;;
54853;SDS011;40747;49.480;8.658;2023-04-03T12:20:56;0.63;;;0.57;;
54853;SDS011;40747;49.480;8.658;2023-04-03T12:23:24;1.20;;;1.10;;
54853;SDS011;40747;49.480;8.658;2023-04-03T12:26:05;2.45;;;0.95;;
54853;SDS011;40747;49.480;8.658;2023-04-03T12:28:44;1.42;;;1.13;;
54853;SDS011;40747;49.480;8.658;2023-04-03T12:31:11;1.95;;;1.10;;
54853;SDS011;40747;49.480;8.658;2023-04-03T12:33:47;1.85;;;0.68;;
54853;SDS011;40747;49.480;8.658;2023-04-03T12:36:45;0.47;;;0.47;;
54853;SDS011;40747;49.480;8.658;2023-04-03T12:39:33;1.30;;;0.70;;
54853;SDS011;40747;49.480;8.658;2023-04-03T12:42:10;1.25;;;0.70;;
54853;SDS011;40747;49.480;8.658;2023-04-03T12:44:49;3.00;;;1.35;;
54853;SDS011;40747;49.480;8.658;2023-04-03T12:47:31;0.80;;;0.55;;
54853;SDS011;40747;49.480;8.658;2023-04-03T12:50:01;1.00;;;0.63;;
54853;SDS011;40747;49.480;8.658;2023-04-03T12:52:33;1.20;;;0.88;;
54853;SDS011;40747;49.480;8.658;2023-04-03T12:55:03;1.25;;;0.70;;
54853;SDS011;40747;49.480;8.658;2023-04-03T12:57:38;8.85;;;1.40;;
54853;SDS011;40747;49.480;8.658;2023-04-03T13:00:20;1.98;;;1.00;;
54853;SDS011;40747;49.480;8.658;2023-04-03T13:02:46;1.23;;;0.70;;
54853;SDS011;40747;49.480;8.658;2023-04-03T13:05:15;1.80;;;0.80;;
54853;SDS011;40747;49.480;8.658;2023-04-03T13:07:43;0.70;;;0.60;;
54853;SDS011;40747;49.480;8.658;2023-04-03T13:12:34;0.70;;;0.70;;
54853;SDS011;40747;49.480;8.658;2023-04-03T13:15:14;2.13;;;0.75;;
54853;SDS011;40747;49.480;8.658;2023-04-03T13:17:43;1.38;;;1.02;;
54853;SDS011;40747;49.480;8.658;2023-04-03T13:20:12;0.68;;;0.68;;
54853;SDS011;40747;49.480;8.658;2023-04-03T13:22:44;0.77;;;0.77;;
54853;SDS011;40747;49.480;8.658;2023-04-03T13:25:19;3.85;;;1.40;;
54853;SDS011;40747;49.480;8.658;2023-04-03T13:27:46;1.63;;;0.95;;
54853;SDS011;40747;49.480;8.658;2023-04-03T13:32:55;2.88;;;0.77;;
54853;SDS011;40747;49.480;8.658;2023-04-03T13:35:38;2.63;;;0.88;;
54853;SDS011;40747;49.480;8.658;2023-04-03T13:38:19;4.38;;;0.70;;
54853;SDS011;40747;49.480;8.658;2023-04-03T13:43:20;2.80;;;1.38;;
54853;SDS011;40747;49.480;8.658;2023-04-03T13:46:04;1.25;;;0.90;;
54853;SDS011;40747;49.480;8.658;2023-04-03T13:48:48;4.22;;;1.27;;
54853;SDS011;40747;49.480;8.658;2023-04-03T13:56:19;1.30;;;0.73;;
54853;SDS011;40747;49.480;8.658;2023-04-03T14:01:43;1.52;;;1.15;;
54853;SDS011;40747;49.480;8.658;2023-04-03T14:04:19;1.02;;;0.88;;
54853;SDS011;40747;49.480;8.658;2023-04-03T14:06:47;0.88;;;0.77;;
54853;SDS011;40747;49.480;8.658;2023-04-03T14:09:13;2.58;;;0.77;;
54853;SDS011;40747;49.480;8.658;2023-04-03T14:11:41;1.58;;;0.98;;
54853;SDS011;40747;49.480;8.658;2023-04-03T14:14:18;3.03;;;1.13;;
54853;SDS011;40747;49.480;8.658;2023-04-03T14:16:49;1.17;;;0.82;;
54853;SDS011;40747;49.480;8.658;2023-04-03T14:19:22;3.10;;;0.80;;
54853;SDS011;40747;49.480;8.658;2023-04-03T14:21:50;2.35;;;0.90;;
54853;SDS011;40747;49.480;8.658;2023-04-03T14:24:17;2.38;;;1.00;;
54853;SDS011;40747;49.480;8.658;2023-04-03T14:26:44;1.88;;;1.00;;
54853;SDS011;40747;49.480;8.658;2023-04-03T14:29:11;3.40;;;1.00;;
54853;SDS011;40747;49.480;8.658;2023-04-03T14:31:38;4.65;;;1.10;;
54853;SDS011;40747;49.480;8.658;2023-04-03T14:34:04;0.88;;;0.60;;
54853;SDS011;40747;49.480;8.658;2023-04-03T14:36:29;1.42;;;0.93;;
54853;SDS011;40747;49.480;8.658;2023-04-03T14:38:56;0.80;;;0.60;;
54853;SDS011;40747;49.480;8.658;2023-04-03T14:41:23;1.10;;;0.75;;
54853;SDS011;40747;49.480;8.658;2023-04-03T14:43:50;6.57;;;1.38;;
54853;SDS011;40747;49.480;8.658;2023-04-03T14:46:18;1.00;;;0.80;;
54853;SDS011;40747;49.480;8.658;2023-04-03T14:49:03;0.65;;;0.63;;
54853;SDS011;40747;49.480;8.658;2023-04-03T14:51:34;1.15;;;1.02;;
54853;SDS011;40747;49.480;8.658;2023-04-03T14:53:59;3.28;;;1.10;;
54853;SDS011;40747;49.480;8.658;2023-04-03T14:56:26;1.50;;;0.98;;
54853;SDS011;40747;49.480;8.658;2023-04-03T14:58:55;1.95;;;0.95;;
54853;SDS011;40747;49.480;8.658;2023-04-03T15:01:22;1.35;;;0.70;;
54853;SDS011;40747;49.480;8.658;2023-04-03T15:03:48;1.15;;;0.90;;
54853;SDS011;40747;49.480;8.658;2023-04-03T15:06:14;1.63;;;0.98;;
54853;SDS011;40747;49.480;8.658;2023-04-03T15:08:40;1.55;;;0.80;;
54853;SDS011;40747;49.480;8.658;2023-04-03T15:11:07;1.65;;;1.05;;
54853;SDS011;40747;49.480;8.658;2023-04-03T15:13:33;0.20;;;0.20;;
54853;SDS011;40747;49.480;8.658;2023-04-03T15:15:58;0.68;;;0.63;;
54853;SDS011;40747;49.480;8.658;2023-04-03T15:18:25;0.80;;;0.75;;
54853;SDS011;40747;49.480;8.658;2023-04-03T15:20:52;1.45;;;0.63;;
54853;SDS011;40747;49.480;8.658;2023-04-03T15:23:18;1.13;;;0.68;;
54853;SDS011;40747;49.480;8.658;2023-04-03T15:25:44;1.73;;;0.80;;
54853;SDS011;40747;49.480;8.658;2023-04-03T15:30:55;2.45;;;1.35;;
54853;SDS011;40747;49.480;8.658;2023-04-03T15:33:21;0.68;;;0.50;;
54853;SDS011;40747;49.480;8.658;2023-04-03T15:35:46;1.95;;;0.82;;
54853;SDS011;40747;49.480;8.658;2023-04-03T15:38:11;1.15;;;0.65;;
54853;SDS011;40747;49.480;8.658;2023-04-03T15:40:37;1.45;;;0.40;;
54853;SDS011;40747;49.480;8.658;2023-04-03T15:43:03;0.57;;;0.30;;
54853;SDS011;40747;49.480;8.658;2023-04-03T15:45:28;1.73;;;0.80;;
54853;SDS011;40747;49.480;8.658;2023-04-03T15:47:55;0.93;;;0.68;;
54853;SDS011;40747;49.480;8.658;2023-04-03T15:50:21;3.67;;;1.08;;
54853;SDS011;40747;49.480;8.658;2023-04-03T15:52:48;0.95;;;0.70;;
54853;SDS011;40747;49.480;8.658;2023-04-03T15:55:16;2.10;;;1.00;;
54853;SDS011;40747;49.480;8.658;2023-04-03T15:57:41;0.95;;;0.70;;
54853;SDS011;40747;49.480;8.658;2023-04-03T16:00:07;2.25;;;0.90;;
54853;SDS011;40747;49.480;8.658;2023-04-03T16:02:33;0.30;;;0.22;;
54853;SDS011;40747;49.480;8.658;2023-04-03T16:04:58;0.70;;;0.63;;
54853;SDS011;40747;49.480;8.658;2023-04-03T16:07:24;2.63;;;0.88;;
54853;SDS011;40747;49.480;8.658;2023-04-03T16:09:49;0.70;;;0.50;;
54853;SDS011;40747;49.480;8.658;2023-04-03T16:12:14;1.00;;;0.40;;
54853;SDS011;40747;49.480;8.658;2023-04-03T16:14:39;0.60;;;0.52;;
54853;SDS011;40747;49.480;8.658;2023-04-03T16:17:05;0.55;;;0.55;;
54853;SDS011;40747;49.480;8.658;2023-04-03T16:19:30;2.72;;;0.80;;
54853;SDS011;40747;49.480;8.658;2023-04-03T16:21:56;2.40;;;0.70;;
54853;SDS011;40747;49.480;8.658;2023-04-03T16:24:21;1.48;;;0.70;;
54853;SDS011;40747;49.480;8.658;2023-04-03T16:26:47;0.60;;;0.55;;
54853;SDS011;40747;49.480;8.658;2023-04-03T16:29:12;1.52;;;0.60;;
54853;SDS011;40747;49.480;8.658;2023-04-03T16:31:38;1.50;;;0.77;;